createdAt,value
2022-08-09T00:04:03.648Z,3.70
2022-08-09T00:07:54.499Z,3.37
2022-08-09T00:12:03.443Z,3.77
2022-08-09T00:16:02.406Z,4.10
2022-08-09T00:20:01.629Z,3.43
2022-08-09T00:24:05.095Z,3.30
2022-08-09T00:28:06.166Z,3.80
2022-08-09T00:32:07.073Z,3.40
2022-08-09T00:36:08.098Z,3.47
2022-08-09T00:40:16.403Z,4.30
2022-08-09T00:44:20.006Z,4.17
2022-08-09T00:48:19.377Z,4.77
2022-08-09T00:52:19.840Z,4.20
2022-08-09T00:56:21.456Z,4.50
2022-08-09T01:00:23.540Z,5.00
2022-08-09T01:04:31.381Z,3.90
2022-08-09T01:08:55.852Z,4.30
2022-08-09T01:13:00.981Z,4.67
2022-08-09T01:17:05.807Z,4.70
2022-08-09T01:21:44.542Z,4.30
2022-08-09T01:25:48.826Z,4.27
2022-08-09T01:29:56.614Z,4.67
2022-08-09T01:33:56.223Z,5.53
2022-08-09T01:38:10.095Z,4.37
2022-08-09T01:42:10.838Z,4.43
2022-08-09T01:46:10.495Z,4.20
2022-08-09T01:50:14.195Z,5.00
2022-08-09T01:54:18.888Z,5.20
2022-08-09T01:58:23.979Z,4.10
2022-08-09T02:02:31.300Z,4.47
2022-08-09T02:06:54.267Z,5.30
2022-08-09T02:10:54.833Z,5.37
2022-08-09T02:14:58.452Z,5.40
2022-08-09T02:18:59.854Z,5.35
2022-08-09T02:23:05.850Z,4.57
2022-08-09T02:27:09.022Z,4.97
2022-08-09T02:31:17.050Z,5.10
2022-08-09T02:36:01.734Z,5.37
2022-08-09T02:39:34.004Z,4.90
2022-08-09T02:43:53.708Z,5.73
2022-08-09T02:47:57.463Z,4.53
2022-08-09T02:51:45.492Z,5.17
2022-08-09T02:55:58.367Z,5.50
2022-08-09T03:00:21.241Z,5.37
2022-08-09T03:04:17.475Z,5.03
2022-08-09T03:08:01.217Z,5.40
2022-08-09T03:12:11.124Z,5.73
2022-08-09T03:16:07.887Z,5.50
2022-08-09T03:20:11.411Z,5.53
2022-08-09T03:24:12.659Z,5.50
2022-08-09T03:28:16.765Z,5.47
2022-08-09T03:32:19.339Z,6.43
2022-08-09T03:36:27.332Z,5.80
2022-08-09T03:40:30.935Z,5.30
2022-08-09T03:44:32.068Z,5.67
2022-08-09T03:48:35.244Z,5.60
2022-08-09T03:52:40.578Z,6.77
2022-08-09T03:56:44.160Z,5.40
2022-08-09T04:00:48.073Z,5.37
2022-08-09T04:04:49.220Z,6.13
2022-08-09T04:08:53.561Z,6.00
2022-08-09T04:12:54.920Z,6.57
2022-08-09T04:16:57.314Z,4.63
2022-08-09T04:20:58.505Z,6.00
2022-08-09T04:25:01.392Z,6.57
2022-08-09T04:29:09.666Z,6.20
2022-08-09T04:33:06.623Z,7.00
2022-08-09T04:37:08.905Z,6.27
2022-08-09T04:41:11.923Z,6.00
2022-08-09T04:45:12.889Z,6.33
2022-08-09T04:49:14.498Z,6.57
2022-08-09T04:53:16.114Z,6.50
2022-08-09T04:57:17.917Z,6.90
2022-08-09T05:01:21.104Z,6.07
2022-08-09T05:05:51.527Z,6.77
2022-08-09T05:09:42.220Z,6.63
2022-08-09T05:13:33.133Z,5.50
2022-08-09T05:18:37.643Z,6.07
2022-08-09T05:21:37.175Z,5.13
2022-08-09T05:25:40.115Z,5.97
2022-08-09T05:29:43.034Z,5.40
2022-08-09T05:33:45.937Z,6.27
2022-08-09T05:37:50.153Z,5.40
2022-08-09T05:41:51.085Z,5.27
2022-08-09T05:45:57.880Z,6.37
2022-08-09T05:50:28.049Z,4.70
2022-08-09T05:53:59.930Z,5.10
2022-08-09T05:58:04.051Z,4.57
2022-08-09T06:02:05.168Z,4.13
2022-08-09T06:06:06.651Z,4.20
2022-08-09T06:10:08.860Z,3.90
2022-08-09T06:14:12.001Z,4.10
2022-08-09T06:18:13.517Z,4.60
2022-08-09T06:22:16.704Z,5.20
2022-08-09T06:26:20.999Z,4.63
2022-08-09T06:30:22.429Z,4.40
2022-08-09T06:34:26.346Z,4.37
2022-08-09T06:38:32.225Z,4.47
2022-08-09T06:42:30.786Z,4.47
2022-08-09T06:46:39.657Z,3.67
2022-08-09T06:50:35.469Z,3.97
2022-08-09T06:54:36.653Z,4.97
2022-08-09T07:00:48.711Z,4.80
2022-08-09T07:02:44.054Z,4.57
2022-08-09T07:06:47.975Z,4.03
2022-08-09T07:10:51.297Z,4.60
2022-08-09T07:14:53.465Z,3.77
2022-08-09T07:18:54.568Z,3.63
2022-08-09T07:22:56.431Z,4.40
2022-08-09T07:27:00.487Z,3.77
2022-08-09T07:31:04.002Z,5.03
2022-08-09T07:35:11.410Z,4.00
2022-08-09T07:39:12.048Z,3.57
2022-08-09T07:43:16.845Z,4.57
2022-08-09T07:47:18.390Z,3.63
2022-08-09T07:52:03.506Z,3.83
2022-08-09T07:55:25.189Z,4.00
2022-08-09T07:59:45.790Z,3.40
2022-08-09T08:03:31.114Z,3.67
2022-08-09T08:08:43.436Z,3.00
2022-08-09T08:12:11.989Z,3.97
2022-08-09T08:15:40.361Z,3.00
2022-08-09T08:19:44.516Z,4.13
2022-08-09T08:23:54.857Z,3.27
2022-08-09T08:27:50.255Z,3.70
2022-08-09T08:32:02.621Z,3.80
2022-08-09T08:35:59.898Z,3.20
2022-08-09T08:39:57.849Z,3.73
2022-08-09T08:44:02.756Z,3.87
2022-08-09T08:48:05.431Z,2.93
2022-08-09T08:52:10.363Z,3.50
2022-08-09T08:56:16.851Z,3.60
2022-08-09T09:00:20.918Z,3.53
2022-08-09T09:04:18.400Z,4.90
2022-08-09T09:08:30.963Z,3.23
2022-08-09T09:12:29.351Z,3.17
2022-08-09T09:16:34.234Z,3.20
2022-08-09T09:20:35.769Z,2.57
2022-08-09T09:24:43.942Z,2.97
2022-08-09T09:29:03.438Z,2.83
2022-08-09T09:33:16.983Z,2.40
2022-08-09T09:37:18.666Z,2.20
2022-08-09T09:41:33.115Z,2.30
2022-08-09T09:46:39.555Z,2.47
2022-08-09T09:50:07.551Z,2.43
2022-08-09T09:54:20.570Z,2.13
2022-08-09T09:58:19.006Z,1.90
2022-08-09T10:02:21.077Z,1.63
2022-08-09T10:06:23.841Z,2.00
2022-08-09T10:10:31.714Z,1.57
2022-08-09T10:14:33.951Z,2.00
2022-08-09T10:18:35.700Z,1.63
2022-08-09T10:22:39.544Z,1.50
2022-08-09T10:26:41.211Z,1.50
2022-08-09T10:34:46.815Z,1.77
2022-08-09T10:38:56.725Z,2.10
2022-08-09T10:42:53.131Z,2.40
2022-08-09T10:48:12.013Z,2.03
2022-08-09T10:51:58.382Z,2.37
2022-08-09T10:56:24.592Z,2.30
2022-08-09T11:00:36.896Z,2.40
2022-08-09T11:04:55.426Z,2.43
2022-08-09T11:08:53.009Z,2.13
2022-08-09T11:13:51.184Z,2.37
2022-08-09T11:17:25.855Z,2.43
2022-08-09T11:21:56.815Z,2.20
2022-08-09T11:25:55.274Z,2.60
2022-08-09T11:30:04.738Z,2.43
2022-08-09T11:34:05.465Z,1.97
2022-08-09T11:38:17.160Z,2.10
2022-08-09T11:42:48.449Z,2.70
2022-08-09T11:46:52.383Z,1.80
2022-08-09T11:52:49.124Z,1.87
2022-08-09T11:55:35.143Z,2.40
2022-08-09T11:59:37.996Z,2.60
2022-08-09T12:03:56.039Z,2.00
2022-08-09T12:07:42.983Z,2.20
2022-08-09T12:12:02.014Z,1.60
2022-08-09T12:15:52.105Z,2.40
2022-08-09T12:19:51.586Z,1.80
2022-08-09T12:24:08.539Z,2.40
2022-08-09T12:29:13.272Z,2.37
2022-08-09T12:32:27.196Z,4.33
2022-08-09T12:36:32.177Z,2.23
2022-08-09T12:40:35.942Z,2.60
2022-08-09T12:44:38.757Z,2.10
2022-08-09T12:48:42.476Z,2.30
2022-08-09T12:53:08.953Z,2.33
2022-08-09T12:56:53.947Z,1.80
2022-08-09T13:00:55.784Z,2.10
2022-08-09T13:05:02.390Z,1.83
2022-08-09T13:09:13.440Z,2.20
2022-08-09T13:13:16.530Z,1.93
2022-08-09T13:17:43.863Z,1.77
2022-08-09T13:22:36.843Z,2.23
2022-08-09T13:25:42.445Z,1.43
2022-08-09T13:30:03.942Z,2.10
2022-08-09T13:33:53.690Z,2.27
2022-08-09T13:37:55.812Z,1.87
2022-08-09T13:42:05.565Z,1.83
2022-08-09T13:47:16.642Z,2.30
2022-08-09T13:50:17.993Z,2.00
2022-08-09T13:54:19.362Z,2.00
2022-08-09T13:58:20.873Z,2.30
2022-08-09T14:02:25.764Z,2.23
2022-08-09T14:06:29.295Z,3.57
2022-08-09T14:10:37.312Z,2.17
2022-08-09T14:14:34.565Z,2.13
2022-08-09T14:18:35.149Z,2.93
2022-08-09T14:22:37.875Z,1.97
2022-08-09T14:26:39.765Z,2.27
2022-08-09T14:30:42.303Z,2.63
2022-08-09T14:34:43.841Z,1.93
2022-08-09T14:38:46.012Z,2.53
2022-08-09T14:42:48.964Z,1.97
2022-08-09T14:47:01.155Z,1.70
2022-08-09T14:50:53.239Z,1.50
2022-08-09T14:54:56.149Z,2.90
2022-08-09T14:58:57.827Z,2.17
2022-08-09T15:03:00.063Z,1.80
2022-08-09T15:07:01.537Z,1.63
2022-08-09T15:11:07.064Z,2.80
2022-08-09T15:15:08.681Z,1.77
2022-08-09T15:19:16.204Z,1.90
2022-08-09T15:24:03.598Z,2.27
2022-08-09T15:27:16.977Z,2.10
2022-08-09T15:31:19.953Z,1.90
2022-08-09T15:35:43.360Z,2.10
2022-08-09T15:39:43.770Z,2.63
2022-08-09T15:43:37.192Z,2.10
2022-08-09T15:47:47.150Z,2.33
2022-08-09T15:51:44.592Z,2.17
2022-08-09T15:56:04.583Z,2.20
2022-08-09T15:59:51.500Z,1.90
2022-08-09T16:03:50.947Z,2.13
2022-08-09T16:07:51.685Z,2.47
2022-08-09T16:11:58.599Z,2.17
2022-08-09T16:16:11.625Z,2.23
2022-08-09T16:20:05.041Z,2.30
2022-08-09T16:24:04.723Z,2.03
2022-08-09T16:28:06.222Z,2.17
2022-08-09T16:32:19.711Z,2.33
2022-08-09T16:36:16.333Z,2.10
2022-08-09T16:40:29.436Z,2.10
2022-08-09T16:44:19.483Z,2.17
2022-08-09T16:48:41.535Z,3.13
2022-08-09T16:52:27.257Z,2.37
2022-08-09T16:56:30.475Z,2.70
2022-08-09T17:00:32.044Z,2.43
2022-08-09T17:04:33.716Z,2.53
2022-08-09T17:08:45.725Z,3.40
2022-08-09T17:12:38.449Z,2.73
2022-08-09T17:16:39.772Z,3.93
2022-08-09T17:20:46.658Z,3.23
2022-08-09T17:24:47.686Z,2.87
2022-08-09T17:28:47.340Z,3.20
2022-08-09T17:32:50.287Z,2.83
2022-08-09T17:36:53.520Z,2.93
2022-08-09T17:40:55.264Z,2.87
2022-08-09T17:44:58.194Z,2.73
2022-08-09T17:48:59.748Z,2.57
2022-08-09T17:53:01.672Z,3.00
2022-08-09T17:57:04.647Z,2.90
2022-08-09T18:01:07.636Z,2.80
2022-08-09T18:05:13.029Z,2.80
2022-08-09T18:09:12.430Z,3.10
2022-08-09T18:13:39.162Z,2.63
2022-08-09T18:17:27.446Z,2.80
2022-08-09T18:21:24.240Z,3.00
2022-08-09T18:25:52.365Z,3.33
2022-08-09T18:30:42.120Z,2.90
2022-08-09T18:33:34.314Z,3.40
2022-08-09T18:37:49.098Z,2.57
2022-08-09T18:41:42.202Z,2.97
2022-08-09T18:46:46.545Z,2.23
2022-08-09T18:49:46.961Z,2.70
2022-08-09T18:54:00.752Z,3.20
2022-08-09T18:57:51.862Z,2.70
2022-08-09T19:01:54.869Z,3.83
2022-08-09T19:06:03.456Z,2.80
2022-08-09T19:10:14.368Z,2.70
2022-08-09T19:14:08.870Z,3.27
2022-08-09T19:18:17.265Z,2.70
2022-08-09T19:22:19.023Z,2.98
2022-08-09T19:26:29.232Z,2.62
2022-08-09T19:30:28.600Z,2.67
2022-08-09T19:34:28.637Z,2.77
2022-08-09T19:38:29.706Z,3.03
2022-08-09T19:42:30.666Z,3.90
2022-08-09T19:46:35.106Z,2.73
2022-08-09T19:50:51.006Z,3.03
2022-08-09T19:54:39.208Z,3.40
2022-08-09T19:58:40.185Z,3.17
2022-08-09T20:04:18.548Z,3.87
2022-08-09T20:06:46.073Z,3.37
2022-08-09T20:10:47.833Z,3.10
2022-08-09T20:14:50.103Z,3.50
2022-08-09T20:19:04.137Z,3.03
2022-08-09T20:22:56.364Z,4.43
2022-08-09T20:26:57.444Z,3.40
2022-08-09T20:30:59.510Z,3.77
2022-08-09T20:35:01.735Z,3.83
2022-08-09T20:39:28.526Z,3.53
2022-08-09T20:43:19.175Z,3.90
2022-08-09T20:47:09.629Z,3.83
2022-08-09T20:51:19.316Z,3.58
2022-08-09T20:55:15.840Z,3.77
2022-08-09T20:59:25.022Z,4.30
2022-08-09T21:03:25.156Z,4.37
2022-08-09T21:07:38.610Z,4.13
2022-08-09T21:15:35.002Z,4.17
2022-08-09T21:20:19.144Z,4.30
2022-08-09T21:23:51.318Z,3.63
2022-08-09T21:27:51.731Z,4.00
2022-08-09T21:31:49.027Z,3.63
2022-08-09T21:35:50.956Z,3.97
2022-08-09T21:39:51.449Z,4.03
2022-08-09T21:43:57.163Z,4.23
2022-08-09T21:47:56.420Z,4.43
2022-08-09T21:51:57.675Z,4.40
2022-08-09T21:55:59.965Z,4.03
2022-08-09T22:00:06.614Z,4.00
2022-08-09T22:04:09.488Z,4.97
2022-08-09T22:08:15.587Z,5.07
2022-08-09T22:12:19.092Z,4.23
2022-08-09T22:16:19.589Z,4.73
2022-08-09T22:20:31.010Z,4.03
2022-08-09T22:24:25.131Z,5.03
2022-08-09T22:28:32.414Z,4.70
2022-08-09T22:32:30.257Z,4.67
2022-08-09T22:36:37.312Z,5.57
2022-08-09T22:40:35.223Z,4.53
2022-08-09T22:44:36.484Z,4.30
2022-08-09T22:48:39.685Z,4.20
2022-08-09T22:52:42.299Z,5.50
2022-08-09T22:56:45.178Z,4.97
2022-08-09T23:00:48.179Z,5.13
2022-08-09T23:04:54.252Z,5.47
2022-08-09T23:08:54.552Z,5.07
2022-08-09T23:12:56.071Z,5.67
2022-08-09T23:16:57.222Z,5.03
2022-08-09T23:20:58.327Z,5.93
2022-08-09T23:24:59.361Z,5.70
2022-08-09T23:29:00.466Z,5.63
2022-08-09T23:33:01.478Z,5.17
2022-08-09T23:37:02.772Z,4.67
2022-08-09T23:41:04.085Z,5.30
2022-08-09T23:45:06.254Z,5.40
2022-08-09T23:49:10.762Z,5.10
2022-08-09T23:53:11.968Z,5.07
2022-08-09T23:57:14.513Z,6.00
